Time;durP1;ratioP1;P1;durP2;ratioP2;P2;SDS_P1;SDS_P2;PMS_P1;PMS_P2;Temp;Humidity;BMP_temperature;BMP_pressure;BME280_temperature;BME280_humidity;BME280_pressure;Samples;Min_cycle;Max_cycle;Signal;HPM_P1;HPM_P2
2021/03/04 00:00:14;;;;;;;97.47;59.40;;;5.50;99.90;;;;;;5076033;28;20181;-69
2021/03/04 00:02:40;;;;;;;111.93;62.40;;;5.60;99.90;;;;;;5076101;28;20449;-67
2021/03/04 00:05:08;;;;;;;113.70;60.08;;;5.50;99.90;;;;;;5076009;28;20192;-68
2021/03/04 00:07:38;;;;;;;115.30;62.00;;;5.40;99.90;;;;;;5075919;28;20179;-67
2021/03/04 00:10:06;;;;;;;115.85;62.28;;;5.40;99.90;;;;;;5074691;28;20650;-68
2021/03/04 00:12:32;;;;;;;117.68;63.00;;;5.40;99.90;;;;;;5076019;28;20530;-68
2021/03/04 00:14:58;;;;;;;101.07;57.47;;;5.40;99.90;;;;;;5075702;28;20201;-68
2021/03/04 00:17:23;;;;;;;115.83;61.80;;;5.40;99.90;;;;;;5076027;28;20178;-68
2021/03/04 00:19:49;;;;;;;118.40;64.90;;;5.30;99.90;;;;;;5075107;28;20227;-68
2021/03/04 00:22:15;;;;;;;118.60;68.03;;;5.20;99.90;;;;;;5075033;28;20169;-68
2021/03/04 00:24:40;;;;;;;116.07;64.30;;;5.30;99.90;;;;;;5075508;28;20207;-68
2021/03/04 00:27:06;;;;;;;125.03;65.60;;;5.30;99.90;;;;;;5075675;28;20219;-68
2021/03/04 00:29:32;;;;;;;106.32;61.78;;;5.30;99.90;;;;;;5075507;28;20730;-67
2021/03/04 00:31:58;;;;;;;110.70;65.53;;;5.30;99.90;;;;;;5075481;28;20209;-67
2021/03/04 00:34:23;;;;;;;94.53;57.87;;;5.20;99.90;;;;;;5074049;28;20212;-67
2021/03/04 00:36:50;;;;;;;111.87;65.57;;;5.30;99.90;;;;;;5075337;28;20166;-68
2021/03/04 00:39:15;;;;;;;102.53;58.78;;;5.50;99.90;;;;;;5075298;28;20614;-68
2021/03/04 00:41:41;;;;;;;110.23;58.90;;;5.50;99.90;;;;;;5073723;28;20240;-68
2021/03/04 00:44:07;;;;;;;102.53;58.37;;;5.50;99.90;;;;;;5075065;28;20492;-68
2021/03/04 00:46:34;;;;;;;99.10;59.17;;;5.50;99.90;;;;;;5075131;28;20600;-67
2021/03/04 00:49:00;;;;;;;107.13;61.90;;;5.40;99.90;;;;;;5075022;28;20198;-67
2021/03/04 00:51:27;;;;;;;96.03;56.97;;;5.20;99.90;;;;;;5075024;28;20218;-68
2021/03/04 00:53:53;;;;;;;102.35;59.10;;;5.60;99.90;;;;;;5074878;28;20201;-68
2021/03/04 00:56:18;;;;;;;102.30;58.67;;;5.60;99.90;;;;;;5074973;28;20176;-69
2021/03/04 00:58:44;;;;;;;99.10;58.03;;;5.60;99.90;;;;;;5073721;28;20250;-68
2021/03/04 01:01:10;;;;;;;96.63;55.30;;;5.60;99.90;;;;;;5073657;28;20558;-68
2021/03/04 01:03:36;;;;;;;91.95;54.20;;;5.60;99.90;;;;;;5073474;28;20225;-68
2021/03/04 01:06:01;;;;;;;101.77;57.33;;;5.60;99.90;;;;;;5073463;28;20178;-68
2021/03/04 01:08:27;;;;;;;100.30;58.03;;;5.50;99.90;;;;;;5075171;28;20189;-68
2021/03/04 01:10:53;;;;;;;97.43;57.60;;;5.40;99.90;;;;;;5074775;28;20441;-69
2021/03/04 01:13:19;;;;;;;102.60;60.77;;;5.40;99.90;;;;;;5074950;28;20286;-68
2021/03/04 01:15:44;;;;;;;97.70;56.43;;;5.40;99.90;;;;;;5074465;28;20410;-68
2021/03/04 01:18:10;;;;;;;112.37;66.10;;;5.40;99.90;;;;;;5074916;28;20189;-68
2021/03/04 01:20:36;;;;;;;108.20;64.60;;;5.40;99.90;;;;;;5074503;28;20184;-68
2021/03/04 01:23:02;;;;;;;127.05;69.88;;;5.40;99.90;;;;;;5074385;28;20682;-68
2021/03/04 01:25:28;;;;;;;116.57;64.70;;;5.40;99.90;;;;;;5073222;28;20264;-68
2021/03/04 01:27:53;;;;;;;156.60;86.63;;;5.30;99.90;;;;;;5074691;28;20404;-67
2021/03/04 01:30:29;;;;;;;114.17;65.03;;;5.30;99.90;;;;;;5074351;28;20177;-68
2021/03/04 01:32:54;;;;;;;99.20;58.15;;;5.30;99.90;;;;;;5074238;28;20204;-68
2021/03/04 01:35:20;;;;;;;105.67;60.93;;;5.30;99.90;;;;;;5074189;28;20697;-69
2021/03/04 01:37:46;;;;;;;112.97;62.93;;;5.40;99.90;;;;;;5074442;28;20184;-67
2021/03/04 01:40:17;;;;;;;101.93;60.20;;;5.40;99.90;;;;;;5074224;28;20188;-68
2021/03/04 01:42:43;;;;;;;104.38;59.25;;;5.30;99.90;;;;;;5074253;28;20221;-68
2021/03/04 01:45:10;;;;;;;90.50;59.88;;;5.10;99.90;;;;;;5072833;28;20617;-68
2021/03/04 01:47:38;;;;;;;99.40;60.13;;;5.10;99.90;;;;;;5072685;28;20196;-67
2021/03/04 01:50:06;;;;;;;110.35;62.58;;;5.10;99.90;;;;;;5074107;28;20262;-68
2021/03/04 01:52:32;;;;;;;107.43;61.15;;;5.10;99.90;;;;;;5073806;28;20185;-68
2021/03/04 01:54:59;;;;;;;109.23;60.27;;;5.10;99.90;;;;;;5073811;28;20189;-68
2021/03/04 01:57:28;;;;;;;104.07;59.38;;;5.10;99.90;;;;;;5074049;28;20899;-67
2021/03/04 01:59:56;;;;;;;101.13;60.03;;;5.10;99.90;;;;;;5072515;28;20204;-68
2021/03/04 02:02:22;;;;;;;97.50;57.90;;;5.00;99.90;;;;;;5072463;28;20180;-68
2021/03/04 02:04:50;;;;;;;88.83;56.50;;;5.10;99.90;;;;;;5072355;28;20568;-68
2021/03/04 02:07:24;;;;;;;94.15;58.00;;;5.30;99.90;;;;;;5073639;28;20192;-68
2021/03/04 02:10:00;;;;;;;108.47;60.33;;;5.40;99.90;;;;;;5073618;28;20224;-67
2021/03/04 02:12:52;;;;;;;101.00;62.55;;;5.00;99.90;;;;;;5073678;28;20196;-68
2021/03/04 02:15:24;;;;;;;107.45;63.38;;;4.60;99.90;;;;;;5073674;28;20162;-68
2021/03/04 02:17:53;;;;;;;106.78;58.83;;;4.40;99.90;;;;;;5072538;28;20275;-68
2021/03/04 02:20:27;;;;;;;97.60;58.75;;;4.40;99.90;;;;;;5072362;28;20305;-68
2021/03/04 02:23:25;;;;;;;96.15;55.95;;;4.40;99.90;;;;;;5073829;28;20601;-67
2021/03/04 02:26:18;;;;;;;99.90;59.78;;;4.40;99.90;;;;;;5070344;28;20193;-68
2021/03/04 02:28:46;;;;;;;92.95;56.80;;;4.30;99.90;;;;;;5073971;28;20193;-67
2021/03/04 02:31:13;;;;;;;103.60;58.10;;;4.20;99.90;;;;;;5073533;28;20178;-68
2021/03/04 02:33:39;;;;;;;105.03;60.15;;;4.30;99.90;;;;;;5073796;28;20667;-68
2021/03/04 02:36:06;;;;;;;106.82;60.70;;;4.30;99.90;;;;;;5073437;28;20177;-68
2021/03/04 02:38:33;;;;;;;108.38;62.40;;;4.40;99.90;;;;;;5073805;28;20201;-67
2021/03/04 02:41:00;;;;;;;110.25;64.68;;;4.30;99.90;;;;;;5073226;28;20169;-68
2021/03/04 02:43:28;;;;;;;101.85;64.05;;;4.30;99.90;;;;;;5073860;28;20601;-68
2021/03/04 02:45:54;;;;;;;106.53;62.20;;;4.30;99.90;;;;;;5077487;28;20218;-68
2021/03/04 02:48:20;;;;;;;110.72;62.67;;;4.40;99.90;;;;;;5077274;28;20208;-68
2021/03/04 02:50:48;;;;;;;121.95;69.43;;;4.50;99.90;;;;;;5077377;28;20169;-68
2021/03/04 02:53:15;;;;;;;123.40;65.57;;;4.50;99.90;;;;;;5076106;28;20215;-68
2021/03/04 02:55:41;;;;;;;105.68;62.92;;;4.30;99.90;;;;;;5077157;28;20268;-68
2021/03/04 02:58:08;;;;;;;128.35;63.90;;;4.50;99.90;;;;;;5077606;28;20204;-67
2021/03/04 03:00:34;;;;;;;105.93;61.60;;;4.40;99.90;;;;;;5077146;28;20498;-68
2021/03/04 03:03:02;;;;;;;108.43;62.67;;;4.40;99.90;;;;;;5077327;28;20216;-68
2021/03/04 03:05:31;;;;;;;106.05;61.88;;;4.50;99.90;;;;;;5075760;28;20276;-68
2021/03/04 03:07:58;;;;;;;113.57;64.05;;;4.30;99.90;;;;;;5075811;28;20197;-68
2021/03/04 03:10:25;;;;;;;102.93;58.72;;;4.30;99.90;;;;;;5077069;28;20180;-68
2021/03/04 03:12:51;;;;;;;115.30;59.92;;;4.30;99.90;;;;;;5075704;28;20181;-67
2021/03/04 03:15:19;;;;;;;104.38;60.30;;;4.10;99.90;;;;;;5075630;28;20181;-68
2021/03/04 03:17:46;;;;;;;112.15;68.70;;;4.10;99.90;;;;;;5075442;28;20526;-67
2021/03/04 03:20:19;;;;;;;114.68;60.65;;;4.20;99.90;;;;;;5076844;28;20169;-67
2021/03/04 03:22:46;;;;;;;104.13;59.97;;;4.30;99.90;;;;;;5075352;28;20281;-68
2021/03/04 03:25:13;;;;;;;91.78;58.33;;;4.40;99.90;;;;;;5076772;28;20173;-68
2021/03/04 03:27:41;;;;;;;103.50;61.63;;;4.40;99.90;;;;;;5076654;28;20193;-67
2021/03/04 03:30:10;;;;;;;112.97;62.35;;;4.30;99.90;;;;;;5075369;28;20227;-68
2021/03/04 03:32:38;;;;;;;98.47;60.42;;;4.10;99.90;;;;;;5076730;28;20491;-67
2021/03/04 03:35:06;;;;;;;101.20;56.70;;;4.40;99.90;;;;;;5076610;28;20318;-68
2021/03/04 03:37:34;;;;;;;97.82;56.00;;;4.50;99.90;;;;;;5076703;28;20181;-67
2021/03/04 03:40:01;;;;;;;90.57;57.80;;;4.60;99.90;;;;;;5076529;28;20227;-68
2021/03/04 03:42:27;;;;;;;93.55;55.85;;;4.70;99.90;;;;;;5076142;28;20614;-67
2021/03/04 03:44:55;;;;;;;96.13;56.10;;;4.70;99.90;;;;;;5076333;28;20267;-67
2021/03/04 03:47:22;;;;;;;104.43;57.20;;;4.80;99.90;;;;;;5076195;28;20260;-67
2021/03/04 03:49:49;;;;;;;113.32;62.13;;;4.80;99.90;;;;;;5074927;28;20207;-68
2021/03/04 03:52:16;;;;;;;100.50;59.50;;;4.80;99.90;;;;;;5076403;28;20581;-67
2021/03/04 03:54:41;;;;;;;99.97;58.42;;;4.80;99.90;;;;;;5075898;28;20674;-68
2021/03/04 03:57:09;;;;;;;93.73;57.17;;;4.50;99.90;;;;;;5076318;28;20166;-68
2021/03/04 03:59:37;;;;;;;97.18;57.92;;;4.50;99.90;;;;;;5075939;28;20234;-68
2021/03/04 04:02:03;;;;;;;99.57;58.92;;;4.40;99.90;;;;;;5075970;28;20579;-67
2021/03/04 04:04:30;;;;;;;114.03;62.45;;;4.30;99.90;;;;;;5075816;28;20263;-68
2021/03/04 04:06:56;;;;;;;99.53;58.83;;;4.10;99.90;;;;;;5074811;28;20658;-67
2021/03/04 04:09:23;;;;;;;97.10;57.70;;;4.20;99.90;;;;;;5075934;28;20301;-68
2021/03/04 04:11:49;;;;;;;105.93;61.72;;;4.20;99.90;;;;;;5075868;28;20515;-67
2021/03/04 04:14:15;;;;;;;109.77;61.73;;;4.30;99.90;;;;;;5074512;28;20295;-68
2021/03/04 04:16:41;;;;;;;99.40;59.97;;;4.20;99.90;;;;;;5075819;28;21206;-67
2021/03/04 04:19:08;;;;;;;105.63;61.05;;;4.20;99.90;;;;;;5074422;28;20228;-68
2021/03/04 04:21:33;;;;;;;113.57;62.40;;;4.00;99.90;;;;;;5075669;28;20181;-68
2021/03/04 04:24:00;;;;;;;106.17;63.57;;;4.00;99.90;;;;;;5075514;28;20273;-68
2021/03/04 04:26:25;;;;;;;121.28;69.00;;;4.10;99.90;;;;;;5075526;28;20435;-68
2021/03/04 04:28:51;;;;;;;214.90;116.37;;;4.10;99.90;;;;;;5075464;28;20673;-67
2021/03/04 04:31:17;;;;;;;261.03;149.40;;;4.10;99.90;;;;;;5074153;28;20202;-69
2021/03/04 04:33:42;;;;;;;173.50;109.53;;;4.00;99.90;;;;;;5075869;28;20610;-67
2021/03/04 04:36:08;;;;;;;125.10;81.87;;;3.90;99.90;;;;;;5075336;28;20169;-69
2021/03/04 04:38:34;;;;;;;101.07;62.37;;;3.90;99.90;;;;;;5075738;28;20276;-67
2021/03/04 04:41:00;;;;;;;94.43;55.23;;;4.00;99.90;;;;;;5075103;28;20177;-68
2021/03/04 04:43:26;;;;;;;88.93;53.25;;;4.10;99.90;;;;;;5073746;28;20566;-68
2021/03/04 04:45:52;;;;;;;85.00;49.47;;;4.10;99.90;;;;;;5075139;28;20265;-68
2021/03/04 04:48:17;;;;;;;87.47;51.70;;;4.20;99.90;;;;;;5075445;28;20224;-68
2021/03/04 04:50:43;;;;;;;89.27;51.23;;;4.10;99.90;;;;;;5075074;28;20712;-68
2021/03/04 04:53:10;;;;;;;91.93;50.37;;;4.20;99.90;;;;;;5075362;28;20201;-67
2021/03/04 04:55:36;;;;;;;92.60;54.00;;;4.10;99.90;;;;;;5074567;28;20407;-68
2021/03/04 04:58:02;;;;;;;82.30;51.00;;;4.10;99.90;;;;;;5074870;28;20220;-68
2021/03/04 05:00:28;;;;;;;100.93;57.95;;;4.10;99.90;;;;;;5074839;28;20260;-68
2021/03/04 05:02:53;;;;;;;80.70;49.60;;;4.10;99.90;;;;;;5075146;28;20672;-67
2021/03/04 05:05:19;;;;;;;87.70;53.47;;;4.10;99.90;;;;;;5074902;28;20202;-67
2021/03/04 05:07:45;;;;;;;91.47;55.73;;;4.10;99.90;;;;;;5074272;28;20189;-68
2021/03/04 05:10:11;;;;;;;89.60;54.77;;;4.10;99.90;;;;;;5074707;28;20169;-67
2021/03/04 05:12:37;;;;;;;89.80;52.95;;;4.00;99.90;;;;;;5074764;28;20566;-68
2021/03/04 05:15:08;;;;;;;91.35;58.38;;;3.90;99.90;;;;;;5074671;28;20677;-68
2021/03/04 05:17:35;;;;;;;91.35;56.30;;;3.90;99.90;;;;;;5074723;28;20208;-68
2021/03/04 05:20:01;;;;;;;86.90;56.47;;;3.90;99.90;;;;;;5074594;28;20586;-68
2021/03/04 05:22:27;;;;;;;93.80;56.83;;;3.80;99.90;;;;;;5073062;28;20223;-68
2021/03/04 05:24:53;;;;;;;93.13;53.80;;;3.80;99.90;;;;;;5074348;28;20201;-67
2021/03/04 05:27:18;;;;;;;90.07;52.03;;;3.80;99.90;;;;;;5073249;28;20660;-68
2021/03/04 05:29:44;;;;;;;98.10;56.47;;;3.70;99.90;;;;;;5074214;28;20193;-68
2021/03/04 05:32:10;;;;;;;99.17;56.27;;;3.70;99.90;;;;;;5074344;28;20231;-67
2021/03/04 05:34:35;;;;;;;97.77;55.40;;;3.70;99.90;;;;;;5074124;28;20666;-68
2021/03/04 05:37:01;;;;;;;98.37;56.17;;;3.70;99.90;;;;;;5072969;28;20231;-68
2021/03/04 05:39:26;;;;;;;109.20;57.97;;;3.70;99.90;;;;;;5074151;28;20196;-68
2021/03/04 05:41:54;;;;;;;91.00;55.30;;;3.60;99.90;;;;;;5074019;28;20224;-67
2021/03/04 05:44:22;;;;;;;102.35;56.42;;;3.70;99.90;;;;;;5074000;28;20698;-68
2021/03/04 05:46:49;;;;;;;91.55;54.25;;;3.80;99.90;;;;;;5072740;28;20180;-67
2021/03/04 05:49:18;;;;;;;101.78;53.75;;;3.90;99.90;;;;;;5074044;28;20720;-68
2021/03/04 05:51:45;;;;;;;94.07;56.28;;;3.90;99.90;;;;;;5073884;28;20181;-68
2021/03/04 05:54:14;;;;;;;101.05;57.65;;;3.90;99.90;;;;;;5072583;28;20197;-67
2021/03/04 05:56:41;;;;;;;91.57;55.03;;;3.90;99.90;;;;;;5072654;28;20634;-67
2021/03/04 05:59:08;;;;;;;94.88;55.35;;;3.90;99.90;;;;;;5073837;28;20219;-68
2021/03/04 06:01:34;;;;;;;106.13;56.95;;;3.90;99.90;;;;;;5073769;28;20187;-68
2021/03/04 06:04:01;;;;;;;91.93;54.08;;;3.90;99.90;;;;;;5073738;28;20217;-68
2021/03/04 06:06:27;;;;;;;92.32;56.08;;;3.90;99.90;;;;;;5073673;28;20174;-67
2021/03/04 06:08:53;;;;;;;98.50;55.70;;;3.90;99.90;;;;;;5073785;28;20215;-68
2021/03/04 06:11:18;;;;;;;104.10;55.80;;;3.90;99.90;;;;;;5073791;28;20410;-68
2021/03/04 06:13:45;;;;;;;110.23;59.27;;;4.00;99.90;;;;;;5087996;28;20235;-67
2021/03/04 06:16:10;;;;;;;102.90;61.33;;;4.00;99.90;;;;;;5093754;28;20599;-68
2021/03/04 06:18:41;;;;;;;103.70;56.70;;;4.00;99.90;;;;;;5092681;28;20261;-68
2021/03/04 06:21:23;;;;;;;118.60;70.65;;;4.00;99.90;;;;;;5092307;28;20259;-68
2021/03/04 06:23:50;;;;;;;111.50;63.65;;;4.00;99.90;;;;;;5084342;28;20227;-67
2021/03/04 06:26:52;;;;;;;117.20;62.40;;;4.00;99.90;;;;;;5078764;28;20176;-68
2021/03/04 06:29:19;;;;;;;104.78;63.25;;;4.10;99.90;;;;;;5078925;28;20241;-67
2021/03/04 06:31:57;;;;;;;109.05;61.15;;;4.20;99.90;;;;;;5084137;28;20653;-68
2021/03/04 06:34:23;;;;;;;110.07;63.38;;;4.20;99.90;;;;;;5090884;28;20196;-67
2021/03/04 06:37:06;;;;;;;103.13;56.90;;;4.20;99.90;;;;;;5088629;28;20181;-67
2021/03/04 06:39:46;;;;;;;103.15;57.38;;;4.20;99.90;;;;;;5093627;28;20791;-67
2021/03/04 06:42:13;;;;;;;105.63;59.75;;;4.30;99.90;;;;;;5091782;28;20231;-68
2021/03/04 06:44:46;;;;;;;105.93;59.78;;;4.30;99.90;;;;;;5092482;28;20689;-68
2021/03/04 06:47:21;;;;;;;110.95;69.88;;;4.30;99.90;;;;;;5093285;28;20215;-68
2021/03/04 06:49:47;;;;;;;122.57;72.32;;;4.30;99.90;;;;;;5092502;28;20211;-67
2021/03/04 06:52:26;;;;;;;128.82;71.13;;;4.40;99.90;;;;;;5093414;28;20527;-67
2021/03/04 06:54:55;;;;;;;115.65;72.75;;;4.40;99.90;;;;;;5090797;28;20196;-67
2021/03/04 06:57:21;;;;;;;104.70;63.38;;;4.50;99.90;;;;;;5093570;28;20185;-67
2021/03/04 06:59:48;;;;;;;106.80;65.50;;;4.50;99.90;;;;;;5080454;28;20355;-67
2021/03/04 07:02:33;;;;;;;123.60;67.15;;;4.50;99.90;;;;;;5092199;28;20172;-68
2021/03/04 07:05:00;;;;;;;107.75;60.83;;;4.50;99.90;;;;;;5084728;28;20212;-68
2021/03/04 07:07:27;;;;;;;114.88;64.53;;;4.50;99.90;;;;;;5091715;28;20252;-67
2021/03/04 07:09:55;;;;;;;116.97;71.15;;;4.60;99.90;;;;;;5085693;28;20682;-67
2021/03/04 07:12:22;;;;;;;106.45;62.78;;;4.70;99.90;;;;;;5076121;28;20188;-67
2021/03/04 07:14:49;;;;;;;104.75;59.13;;;4.60;99.90;;;;;;5089462;28;20208;-68
2021/03/04 07:17:16;;;;;;;103.60;60.38;;;4.60;99.90;;;;;;5092676;28;20189;-67
2021/03/04 07:19:50;;;;;;;98.07;58.00;;;4.50;99.90;;;;;;5086814;28;20208;-68
2021/03/04 07:22:18;;;;;;;107.53;62.80;;;4.50;99.90;;;;;;5086653;28;20212;-67
2021/03/04 07:24:45;;;;;;;113.72;64.82;;;4.60;99.90;;;;;;5092009;28;20703;-68
2021/03/04 07:27:14;;;;;;;100.30;60.58;;;4.90;99.90;;;;;;5091031;28;20653;-67
2021/03/04 07:29:40;;;;;;;103.85;65.43;;;5.00;99.90;;;;;;5089433;28;20696;-68
2021/03/04 07:32:07;;;;;;;113.32;69.40;;;5.00;99.90;;;;;;5095533;28;20208;-67
2021/03/04 07:34:37;;;;;;;122.32;73.22;;;5.20;99.90;;;;;;5094896;28;20208;-67
2021/03/04 07:37:03;;;;;;;112.82;66.55;;;5.20;99.90;;;;;;5089548;28;20529;-68
2021/03/04 07:39:30;;;;;;;105.65;68.78;;;5.30;99.90;;;;;;5073160;28;20287;-67
2021/03/04 07:41:57;;;;;;;105.72;64.53;;;5.40;99.90;;;;;;5079457;28;20618;-68
2021/03/04 07:44:28;;;;;;;118.82;65.82;;;5.50;99.90;;;;;;5087527;28;20226;-68
2021/03/04 07:46:56;;;;;;;102.60;61.65;;;5.60;99.90;;;;;;5086701;28;20683;-67
2021/03/04 07:49:48;;;;;;;97.70;61.40;;;5.70;99.90;;;;;;5085323;28;20228;-68
2021/03/04 07:52:18;;;;;;;98.90;60.78;;;5.90;99.90;;;;;;5089838;28;20197;-67
2021/03/04 07:54:48;;;;;;;101.82;61.33;;;6.10;99.90;;;;;;5094731;28;20299;-68
2021/03/04 07:57:26;;;;;;;104.68;64.80;;;6.30;99.90;;;;;;5083952;28;20654;-68
2021/03/04 07:59:58;;;;;;;105.10;61.65;;;6.40;99.90;;;;;;5089441;28;20700;-68
2021/03/04 08:02:34;;;;;;;102.72;66.53;;;6.50;99.90;;;;;;5075954;28;20264;-68
2021/03/04 08:05:19;;;;;;;99.72;62.55;;;6.60;99.90;;;;;;5069307;28;20192;-68
2021/03/04 08:07:49;;;;;;;99.18;61.50;;;6.90;99.90;;;;;;5078449;28;20296;-68
2021/03/04 08:10:20;;;;;;;99.50;61.00;;;7.20;99.90;;;;;;5078463;28;20234;-68
2021/03/04 08:13:06;;;;;;;98.97;59.42;;;7.30;99.90;;;;;;5079692;28;20719;-68
2021/03/04 08:15:40;;;;;;;98.38;60.08;;;7.40;99.90;;;;;;5082743;28;20224;-68
2021/03/04 08:18:15;;;;;;;102.10;60.70;;;7.50;99.90;;;;;;5095871;28;20205;-68
2021/03/04 08:20:41;;;;;;;100.10;59.15;;;7.80;99.90;;;;;;5076034;28;20286;-68
2021/03/04 08:23:07;;;;;;;81.77;56.30;;;8.00;99.90;;;;;;5082968;28;20300;-68
2021/03/04 08:25:33;;;;;;;84.75;57.25;;;8.10;99.90;;;;;;5083252;28;20214;-68
2021/03/04 08:28:01;;;;;;;84.17;53.93;;;8.30;99.90;;;;;;5075694;28;20681;-68
2021/03/04 08:30:42;;;;;;;80.75;55.55;;;8.30;99.90;;;;;;5077173;28;20188;-68
2021/03/04 08:33:12;;;;;;;85.88;57.00;;;8.40;99.90;;;;;;5077295;28;20576;-68
2021/03/04 08:35:45;;;;;;;84.93;55.92;;;8.50;99.90;;;;;;5077195;28;20204;-67
2021/03/04 08:38:18;;;;;;;84.57;53.35;;;8.70;99.90;;;;;;5086319;28;20679;-68
2021/03/04 08:40:55;;;;;;;76.82;52.20;;;8.80;99.90;;;;;;5068525;28;20186;-68
2021/03/04 08:43:28;;;;;;;79.15;51.33;;;9.20;99.90;;;;;;5081107;28;20228;-68
2021/03/04 08:45:59;;;;;;;76.45;52.00;;;9.40;99.90;;;;;;5069047;28;20619;-68
2021/03/04 08:48:25;;;;;;;73.03;49.22;;;9.70;99.90;;;;;;5072319;28;20685;-68
2021/03/04 08:50:53;;;;;;;74.45;49.10;;;9.80;99.90;;;;;;5091067;28;20580;-68
2021/03/04 08:53:22;;;;;;;64.32;47.22;;;10.20;99.90;;;;;;5087390;28;20208;-68
2021/03/04 08:55:48;;;;;;;65.22;48.13;;;10.40;99.90;;;;;;5066974;28;20185;-68
2021/03/04 08:58:14;;;;;;;63.42;46.75;;;10.80;99.90;;;;;;5078206;28;20369;-69
2021/03/04 09:00:49;;;;;;;61.30;43.60;;;10.90;99.90;;;;;;5071479;28;20230;-68
2021/03/04 09:03:15;;;;;;;60.28;44.17;;;11.30;99.90;;;;;;5079536;28;20222;-68
2021/03/04 09:05:41;;;;;;;55.70;41.30;;;11.50;99.90;;;;;;5085751;28;20188;-69
2021/03/04 09:08:08;;;;;;;52.13;40.13;;;11.70;99.90;;;;;;5082375;28;20483;-68
2021/03/04 09:10:49;;;;;;;51.92;40.13;;;11.90;99.90;;;;;;5079670;28;20197;-67
2021/03/04 09:13:25;;;;;;;60.03;42.50;;;12.10;99.90;;;;;;5077703;28;20249;-68
2021/03/04 09:15:54;;;;;;;48.75;36.33;;;12.20;99.90;;;;;;5075082;28;20339;-67
2021/03/04 09:18:21;;;;;;;41.70;31.15;;;12.50;99.90;;;;;;5072911;28;20204;-68
2021/03/04 09:20:48;;;;;;;35.88;29.70;;;12.60;99.90;;;;;;5077834;28;20262;-69
2021/03/04 09:23:14;;;;;;;40.13;30.57;;;12.70;99.20;;;;;;5089876;28;20333;-70
2021/03/04 09:25:41;;;;;;;40.70;33.30;;;12.70;97.30;;;;;;5079578;28;20517;-68
2021/03/04 09:28:11;;;;;;;38.63;28.30;;;12.80;95.60;;;;;;5087010;28;20456;-68
2021/03/04 09:30:36;;;;;;;42.27;29.20;;;12.80;94.70;;;;;;5085481;28;20425;-68
2021/03/04 09:33:02;;;;;;;40.13;29.20;;;13.00;94.30;;;;;;5090726;28;20942;-68
2021/03/04 09:35:28;;;;;;;34.33;28.57;;;13.20;93.50;;;;;;5077726;28;20185;-68
2021/03/04 09:38:04;;;;;;;42.20;31.53;;;13.30;93.30;;;;;;5078848;28;20697;-68
2021/03/04 09:40:30;;;;;;;33.57;26.97;;;13.50;93.00;;;;;;5082822;28;20176;-68
2021/03/04 09:42:57;;;;;;;37.77;28.10;;;13.60;91.40;;;;;;5075418;28;20563;-68
2021/03/04 09:45:23;;;;;;;35.30;28.13;;;13.60;91.40;;;;;;5085254;28;20185;-68
2021/03/04 09:47:51;;;;;;;39.63;33.03;;;13.60;90.70;;;;;;5085585;28;20818;-68
2021/03/04 09:50:25;;;;;;;42.60;37.53;;;13.90;90.30;;;;;;5090920;28;20505;-69
2021/03/04 09:53:08;;;;;;;36.60;28.83;;;14.20;90.00;;;;;;5082121;28;20498;-68
2021/03/04 09:55:41;;;;;;;35.17;29.20;;;14.40;88.10;;;;;;5080582;28;20803;-68
2021/03/04 09:58:25;;;;;;;33.50;27.63;;;14.40;86.50;;;;;;5078797;28;20544;-68
2021/03/04 10:00:58;;;;;;;33.67;28.07;;;14.60;88.10;;;;;;5074004;28;20424;-69
2021/03/04 10:03:32;;;;;;;33.80;27.93;;;14.20;85.80;;;;;;5075720;28;21041;-68
2021/03/04 10:05:58;;;;;;;35.90;27.70;;;14.30;84.80;;;;;;5070650;28;20422;-69
2021/03/04 10:08:24;;;;;;;34.67;28.00;;;14.40;84.50;;;;;;5081997;28;21021;-68
2021/03/04 10:10:51;;;;;;;34.47;27.90;;;14.70;84.30;;;;;;5066012;28;20418;-69
2021/03/04 10:13:27;;;;;;;32.43;25.83;;;14.70;81.70;;;;;;5076744;28;20816;-69
2021/03/04 10:15:53;;;;;;;33.00;27.73;;;14.80;80.20;;;;;;5081360;28;20804;-69
2021/03/04 10:18:19;;;;;;;35.00;30.00;;;15.00;81.30;;;;;;5088051;28;20456;-68
2021/03/04 10:20:47;;;;;;;35.67;29.97;;;14.90;80.30;;;;;;5089432;28;20281;-70
2021/03/04 10:23:14;;;;;;;35.27;28.27;;;14.90;81.10;;;;;;5080229;28;20571;-68
2021/03/04 10:25:41;;;;;;;34.20;28.63;;;14.80;81.30;;;;;;5084307;28;20437;-69
2021/03/04 10:28:07;;;;;;;36.13;29.43;;;14.80;80.50;;;;;;5080435;28;20464;-68
2021/03/04 10:30:34;;;;;;;36.37;29.63;;;14.90;80.30;;;;;;5073729;28;20959;-70
2021/03/04 10:33:07;;;;;;;37.23;28.73;;;15.20;79.50;;;;;;5073087;28;20453;-69
2021/03/04 10:35:35;;;;;;;31.33;27.93;;;15.20;78.50;;;;;;5078517;28;20436;-68
2021/03/04 10:38:01;;;;;;;30.57;26.20;;;15.00;76.60;;;;;;5076531;28;20538;-68
2021/03/04 10:40:27;;;;;;;35.87;28.47;;;14.90;76.40;;;;;;5075704;28;20424;-69
2021/03/04 10:42:52;;;;;;;32.50;26.70;;;15.00;76.40;;;;;;5074433;28;20970;-68
2021/03/04 10:45:19;;;;;;;32.20;26.73;;;15.00;75.50;;;;;;5082947;28;20180;-69
2021/03/04 10:47:46;;;;;;;34.57;27.60;;;15.30;75.00;;;;;;5082585;28;20441;-68
2021/03/04 10:50:15;;;;;;;36.80;28.13;;;15.20;74.70;;;;;;5080869;28;20942;-68
2021/03/04 10:52:40;;;;;;;34.80;27.53;;;15.60;75.90;;;;;;5081234;28;20460;-68
2021/03/04 10:55:07;;;;;;;33.77;26.30;;;15.70;72.40;;;;;;5074627;28;20497;-70
2021/03/04 10:57:34;;;;;;;32.83;26.20;;;15.80;72.50;;;;;;5075753;28;20185;-68
2021/03/04 11:00:00;;;;;;;32.90;26.73;;;16.30;71.70;;;;;;5082326;28;20512;-69
2021/03/04 11:02:28;;;;;;;35.87;27.00;;;16.20;71.30;;;;;;5072330;28;20567;-69
2021/03/04 11:04:54;;;;;;;38.77;33.50;;;16.30;69.20;;;;;;5072100;28;20220;-69
2021/03/04 11:07:20;;;;;;;34.43;27.80;;;16.20;68.80;;;;;;5084851;28;20436;-68
2021/03/04 11:09:45;;;;;;;35.20;26.67;;;16.30;68.30;;;;;;5092240;28;20219;-68
2021/03/04 11:12:11;;;;;;;34.77;27.23;;;16.20;69.10;;;;;;5084299;28;20188;-68
2021/03/04 11:14:38;;;;;;;32.90;26.47;;;16.30;68.80;;;;;;5080227;28;20701;-70
2021/03/04 11:17:04;;;;;;;29.83;26.40;;;16.40;68.20;;;;;;5081566;28;20184;-69
2021/03/04 11:19:31;;;;;;;32.07;26.83;;;16.20;67.40;;;;;;5081034;28;20440;-69
2021/03/04 11:21:56;;;;;;;30.60;24.00;;;16.40;67.50;;;;;;5081339;28;20429;-68
2021/03/04 11:24:22;;;;;;;32.73;25.20;;;16.70;67.40;;;;;;5086242;28;20468;-69
2021/03/04 11:26:48;;;;;;;28.10;24.20;;;16.70;66.30;;;;;;5090835;28;20207;-69
2021/03/04 11:29:13;;;;;;;32.17;27.07;;;16.70;66.00;;;;;;5079681;28;20300;-68
2021/03/04 11:31:39;;;;;;;31.50;25.20;;;16.80;66.50;;;;;;5086009;28;20178;-68
2021/03/04 11:34:05;;;;;;;27.80;23.57;;;16.70;65.20;;;;;;5081982;28;20206;-69
2021/03/04 11:36:32;;;;;;;32.40;28.20;;;16.90;66.70;;;;;;5078051;28;20614;-68
2021/03/04 11:38:59;;;;;;;30.37;26.37;;;17.10;66.00;;;;;;5082924;28;20449;-68
2021/03/04 11:41:25;;;;;;;32.27;26.27;;;17.20;65.60;;;;;;5085429;28;20530;-69
2021/03/04 11:43:51;;;;;;;31.27;25.57;;;17.20;65.40;;;;;;5088891;28;20836;-68
2021/03/04 11:46:20;;;;;;;31.00;26.33;;;17.20;64.60;;;;;;5081824;28;20419;-70
2021/03/04 11:48:46;;;;;;;32.37;24.77;;;17.30;64.10;;;;;;5081245;28;20299;-70
2021/03/04 11:51:12;;;;;;;27.47;23.63;;;17.20;63.50;;;;;;5083100;28;20887;-70
2021/03/04 11:53:38;;;;;;;32.83;25.27;;;17.20;64.20;;;;;;5073672;28;20553;-69
2021/03/04 11:56:04;;;;;;;32.23;26.83;;;17.10;62.70;;;;;;5079754;28;20974;-70
2021/03/04 11:58:30;;;;;;;28.20;23.80;;;17.20;63.00;;;;;;5075317;28;20197;-69
2021/03/04 12:00:55;;;;;;;28.13;23.00;;;17.30;62.30;;;;;;5080237;28;20409;-70
2021/03/04 12:03:25;;;;;;;29.60;25.70;;;17.70;62.90;;;;;;5079772;28;20699;-68
2021/03/04 12:05:50;;;;;;;25.13;22.43;;;17.60;62.00;;;;;;5081378;28;20189;-69
2021/03/04 12:08:16;;;;;;;32.13;24.70;;;17.90;62.10;;;;;;5076208;28;20458;-69
2021/03/04 12:10:42;;;;;;;28.17;24.43;;;18.00;61.50;;;;;;5075706;28;20549;-69
2021/03/04 12:13:09;;;;;;;30.60;23.77;;;17.60;61.00;;;;;;5077368;28;20250;-69
2021/03/04 12:15:35;;;;;;;28.47;21.53;;;17.90;61.70;;;;;;5082241;28;20424;-69
2021/03/04 12:18:01;;;;;;;26.00;20.17;;;18.20;60.40;;;;;;5083992;28;20454;-68
2021/03/04 12:20:27;;;;;;;30.20;23.50;;;18.00;58.70;;;;;;5089240;28;20415;-69
2021/03/04 12:22:53;;;;;;;26.27;21.27;;;18.10;60.30;;;;;;5084139;28;20447;-69
2021/03/04 12:25:18;;;;;;;30.83;22.03;;;18.10;59.70;;;;;;5082562;28;20715;-70
2021/03/04 12:27:44;;;;;;;27.40;22.67;;;18.30;59.30;;;;;;5079295;28;20175;-68
2021/03/04 12:30:11;;;;;;;28.50;24.37;;;18.20;60.00;;;;;;5080230;28;20425;-68
2021/03/04 12:32:36;;;;;;;29.13;24.20;;;18.20;60.50;;;;;;5081125;28;20199;-68
2021/03/04 12:35:06;;;;;;;27.43;22.60;;;17.90;61.30;;;;;;5075289;28;20430;-69